sensor_id;sensor_type;location;lat;lon;timestamp;P1;durP1;ratioP1;P2;durP2;ratioP2
62151;SDS011;48139;47.474;19.034;2023-04-24T03:44:01;21.17;;;12.95;;
62151;SDS011;48139;47.474;19.034;2023-04-24T03:47:05;17.40;;;12.68;;
62151;SDS011;48139;47.474;19.034;2023-04-24T03:50:08;15.35;;;11.48;;
62151;SDS011;48139;47.474;19.034;2023-04-24T03:53:17;17.05;;;13.18;;
62151;SDS011;48139;47.474;19.034;2023-04-24T03:56:19;17.17;;;12.23;;
62151;SDS011;48139;47.474;19.034;2023-04-24T04:02:25;13.05;;;9.38;;
62151;SDS011;48139;47.474;19.034;2023-04-24T04:05:29;15.27;;;11.55;;
62151;SDS011;48139;47.474;19.034;2023-04-24T04:08:31;12.35;;;10.13;;
62151;SDS011;48139;47.474;19.034;2023-04-24T04:11:34;12.75;;;10.02;;
62151;SDS011;48139;47.474;19.034;2023-04-24T04:14:37;17.93;;;10.13;;
62151;SDS011;48139;47.474;19.034;2023-04-24T04:17:40;15.68;;;9.60;;
62151;SDS011;48139;47.474;19.034;2023-04-24T04:20:43;16.45;;;12.10;;
62151;SDS011;48139;47.474;19.034;2023-04-24T04:23:47;17.52;;;11.63;;
62151;SDS011;48139;47.474;19.034;2023-04-24T04:26:50;13.85;;;10.48;;
62151;SDS011;48139;47.474;19.034;2023-04-24T04:29:55;13.90;;;10.23;;
62151;SDS011;48139;47.474;19.034;2023-04-24T04:32:59;13.88;;;9.40;;
62151;SDS011;48139;47.474;19.034;2023-04-24T04:36:03;13.25;;;9.27;;
62151;SDS011;48139;47.474;19.034;2023-04-24T04:39:06;12.23;;;8.77;;
62151;SDS011;48139;47.474;19.034;2023-04-24T04:42:13;13.50;;;9.50;;
62151;SDS011;48139;47.474;19.034;2023-04-24T04:45:16;14.15;;;9.32;;
62151;SDS011;48139;47.474;19.034;2023-04-24T04:48:21;13.10;;;10.15;;
62151;SDS011;48139;47.474;19.034;2023-04-24T04:51:24;15.77;;;9.50;;
62151;SDS011;48139;47.474;19.034;2023-04-24T04:54:29;13.85;;;10.80;;
62151;SDS011;48139;47.474;19.034;2023-04-24T04:57:32;12.90;;;9.80;;
62151;SDS011;48139;47.474;19.034;2023-04-24T05:00:34;12.98;;;9.18;;
62151;SDS011;48139;47.474;19.034;2023-04-24T05:03:40;19.60;;;10.35;;
62151;SDS011;48139;47.474;19.034;2023-04-24T05:06:44;13.88;;;9.93;;
62151;SDS011;48139;47.474;19.034;2023-04-24T05:09:47;14.43;;;8.63;;
62151;SDS011;48139;47.474;19.034;2023-04-24T05:12:50;14.70;;;8.98;;
62151;SDS011;48139;47.474;19.034;2023-04-24T05:15:53;22.60;;;8.38;;
62151;SDS011;48139;47.474;19.034;2023-04-24T05:18:55;13.80;;;8.93;;
62151;SDS011;48139;47.474;19.034;2023-04-24T05:21:59;18.92;;;9.52;;
62151;SDS011;48139;47.474;19.034;2023-04-24T05:25:01;13.82;;;9.52;;
62151;SDS011;48139;47.474;19.034;2023-04-24T05:28:06;14.95;;;10.10;;
62151;SDS011;48139;47.474;19.034;2023-04-24T05:31:09;15.52;;;9.93;;
62151;SDS011;48139;47.474;19.034;2023-04-24T05:34:11;16.62;;;10.25;;
62151;SDS011;48139;47.474;19.034;2023-04-24T05:37:14;16.83;;;10.57;;
62151;SDS011;48139;47.474;19.034;2023-04-24T05:40:17;12.10;;;8.75;;
62151;SDS011;48139;47.474;19.034;2023-04-24T05:43:19;13.00;;;8.40;;
62151;SDS011;48139;47.474;19.034;2023-04-24T05:46:22;16.17;;;10.05;;
62151;SDS011;48139;47.474;19.034;2023-04-24T05:49:25;16.35;;;9.90;;
62151;SDS011;48139;47.474;19.034;2023-04-24T05:52:28;16.25;;;9.20;;
62151;SDS011;48139;47.474;19.034;2023-04-24T05:55:31;13.05;;;8.43;;
62151;SDS011;48139;47.474;19.034;2023-04-24T05:58:33;14.15;;;8.63;;
62151;SDS011;48139;47.474;19.034;2023-04-24T06:01:36;13.50;;;8.48;;
62151;SDS011;48139;47.474;19.034;2023-04-24T06:04:40;11.23;;;8.63;;
62151;SDS011;48139;47.474;19.034;2023-04-24T06:07:42;17.03;;;9.27;;
62151;SDS011;48139;47.474;19.034;2023-04-24T06:10:46;13.20;;;9.02;;
62151;SDS011;48139;47.474;19.034;2023-04-24T06:13:48;20.20;;;9.97;;
62151;SDS011;48139;47.474;19.034;2023-04-24T06:16:56;14.48;;;9.55;;
62151;SDS011;48139;47.474;19.034;2023-04-24T06:20:00;12.27;;;9.20;;
62151;SDS011;48139;47.474;19.034;2023-04-24T06:23:03;12.93;;;8.25;;
62151;SDS011;48139;47.474;19.034;2023-04-24T06:26:07;12.10;;;8.32;;
62151;SDS011;48139;47.474;19.034;2023-04-24T06:29:10;12.85;;;9.23;;
62151;SDS011;48139;47.474;19.034;2023-04-24T06:32:12;11.35;;;8.65;;
62151;SDS011;48139;47.474;19.034;2023-04-24T06:35:15;13.65;;;9.25;;
62151;SDS011;48139;47.474;19.034;2023-04-24T06:38:18;14.25;;;10.18;;
62151;SDS011;48139;47.474;19.034;2023-04-24T06:41:21;16.12;;;9.73;;
62151;SDS011;48139;47.474;19.034;2023-04-24T06:44:23;13.40;;;10.30;;
62151;SDS011;48139;47.474;19.034;2023-04-24T06:47:26;22.77;;;12.03;;
62151;SDS011;48139;47.474;19.034;2023-04-24T06:50:29;12.80;;;10.18;;
62151;SDS011;48139;47.474;19.034;2023-04-24T06:53:32;13.23;;;9.93;;
62151;SDS011;48139;47.474;19.034;2023-04-24T06:56:35;15.57;;;10.85;;
62151;SDS011;48139;47.474;19.034;2023-04-24T06:59:38;17.10;;;9.98;;
62151;SDS011;48139;47.474;19.034;2023-04-24T07:02:40;13.93;;;9.93;;
62151;SDS011;48139;47.474;19.034;2023-04-24T07:05:44;14.48;;;10.27;;
62151;SDS011;48139;47.474;19.034;2023-04-24T07:08:46;13.53;;;10.30;;
62151;SDS011;48139;47.474;19.034;2023-04-24T07:11:50;12.75;;;8.88;;
62151;SDS011;48139;47.474;19.034;2023-04-24T07:14:56;15.65;;;10.50;;
62151;SDS011;48139;47.474;19.034;2023-04-24T07:17:58;14.25;;;10.90;;
62151;SDS011;48139;47.474;19.034;2023-04-24T07:21:03;17.77;;;12.25;;
62151;SDS011;48139;47.474;19.034;2023-04-24T07:24:06;14.23;;;9.68;;
62151;SDS011;48139;47.474;19.034;2023-04-24T07:27:12;16.65;;;10.63;;
62151;SDS011;48139;47.474;19.034;2023-04-24T07:30:18;13.68;;;9.48;;
62151;SDS011;48139;47.474;19.034;2023-04-24T07:33:20;23.98;;;9.35;;
62151;SDS011;48139;47.474;19.034;2023-04-24T07:36:24;14.77;;;9.80;;
62151;SDS011;48139;47.474;19.034;2023-04-24T07:39:30;13.57;;;9.48;;
62151;SDS011;48139;47.474;19.034;2023-04-24T07:42:33;15.57;;;10.90;;
62151;SDS011;48139;47.474;19.034;2023-04-24T07:45:40;15.55;;;9.85;;
62151;SDS011;48139;47.474;19.034;2023-04-24T07:48:43;17.58;;;10.50;;
62151;SDS011;48139;47.474;19.034;2023-04-24T07:51:45;14.68;;;10.95;;
62151;SDS011;48139;47.474;19.034;2023-04-24T07:54:48;14.10;;;10.15;;
62151;SDS011;48139;47.474;19.034;2023-04-24T08:00:54;18.15;;;9.90;;
62151;SDS011;48139;47.474;19.034;2023-04-24T08:03:57;12.13;;;8.67;;
62151;SDS011;48139;47.474;19.034;2023-04-24T08:07:00;12.75;;;8.65;;
62151;SDS011;48139;47.474;19.034;2023-04-24T08:10:03;14.90;;;9.27;;
62151;SDS011;48139;47.474;19.034;2023-04-24T08:13:06;13.40;;;9.32;;
62151;SDS011;48139;47.474;19.034;2023-04-24T08:16:09;15.63;;;9.68;;
62151;SDS011;48139;47.474;19.034;2023-04-24T08:19:11;13.97;;;8.97;;
62151;SDS011;48139;47.474;19.034;2023-04-24T08:22:14;12.52;;;9.38;;
62151;SDS011;48139;47.474;19.034;2023-04-24T08:25:18;15.35;;;9.27;;
62151;SDS011;48139;47.474;19.034;2023-04-24T08:28:21;16.17;;;9.35;;
62151;SDS011;48139;47.474;19.034;2023-04-24T08:31:24;15.63;;;9.03;;
62151;SDS011;48139;47.474;19.034;2023-04-24T08:34:32;17.42;;;10.00;;
62151;SDS011;48139;47.474;19.034;2023-04-24T08:37:34;12.73;;;8.05;;
62151;SDS011;48139;47.474;19.034;2023-04-24T08:40:37;20.55;;;11.18;;
62151;SDS011;48139;47.474;19.034;2023-04-24T08:43:41;19.65;;;9.57;;
62151;SDS011;48139;47.474;19.034;2023-04-24T08:46:44;15.48;;;9.40;;
62151;SDS011;48139;47.474;19.034;2023-04-24T08:49:54;13.45;;;9.48;;
62151;SDS011;48139;47.474;19.034;2023-04-24T08:53:03;12.40;;;8.70;;
62151;SDS011;48139;47.474;19.034;2023-04-24T08:56:12;16.48;;;9.60;;
62151;SDS011;48139;47.474;19.034;2023-04-24T08:59:16;16.17;;;9.65;;
62151;SDS011;48139;47.474;19.034;2023-04-24T09:02:23;14.20;;;8.80;;
62151;SDS011;48139;47.474;19.034;2023-04-24T09:05:32;13.68;;;9.93;;
62151;SDS011;48139;47.474;19.034;2023-04-24T09:08:40;15.90;;;9.07;;
62151;SDS011;48139;47.474;19.034;2023-04-24T09:11:50;13.60;;;8.07;;
62151;SDS011;48139;47.474;19.034;2023-04-24T09:15:00;11.65;;;7.75;;
62151;SDS011;48139;47.474;19.034;2023-04-24T09:18:06;14.07;;;9.10;;
62151;SDS011;48139;47.474;19.034;2023-04-24T09:21:14;16.45;;;8.68;;
62151;SDS011;48139;47.474;19.034;2023-04-24T09:24:18;11.93;;;8.13;;
62151;SDS011;48139;47.474;19.034;2023-04-24T09:27:24;18.10;;;7.53;;
62151;SDS011;48139;47.474;19.034;2023-04-24T09:30:27;13.00;;;8.15;;
62151;SDS011;48139;47.474;19.034;2023-04-24T09:33:29;11.10;;;7.37;;
62151;SDS011;48139;47.474;19.034;2023-04-24T09:36:33;13.32;;;8.15;;
62151;SDS011;48139;47.474;19.034;2023-04-24T09:39:38;11.43;;;6.75;;
62151;SDS011;48139;47.474;19.034;2023-04-24T09:42:43;13.82;;;7.70;;
62151;SDS011;48139;47.474;19.034;2023-04-24T09:45:55;16.20;;;7.78;;
62151;SDS011;48139;47.474;19.034;2023-04-24T09:49:07;12.20;;;7.22;;
62151;SDS011;48139;47.474;19.034;2023-04-24T09:52:12;11.75;;;7.22;;
62151;SDS011;48139;47.474;19.034;2023-04-24T09:55:19;10.32;;;6.87;;
62151;SDS011;48139;47.474;19.034;2023-04-24T09:58:25;12.18;;;6.95;;
62151;SDS011;48139;47.474;19.034;2023-04-24T10:01:31;9.38;;;7.07;;
62151;SDS011;48139;47.474;19.034;2023-04-24T10:04:34;12.40;;;7.22;;
62151;SDS011;48139;47.474;19.034;2023-04-24T10:07:39;12.77;;;7.03;;
62151;SDS011;48139;47.474;19.034;2023-04-24T10:10:45;9.63;;;6.18;;
62151;SDS011;48139;47.474;19.034;2023-04-24T10:13:48;17.90;;;8.30;;
62151;SDS011;48139;47.474;19.034;2023-04-24T10:16:52;22.67;;;9.07;;
62151;SDS011;48139;47.474;19.034;2023-04-24T10:19:56;14.75;;;7.28;;
62151;SDS011;48139;47.474;19.034;2023-04-24T10:23:00;12.23;;;7.12;;
62151;SDS011;48139;47.474;19.034;2023-04-24T10:26:03;10.30;;;6.22;;
62151;SDS011;48139;47.474;19.034;2023-04-24T10:29:06;8.63;;;5.65;;
62151;SDS011;48139;47.474;19.034;2023-04-24T10:32:11;12.80;;;6.78;;
62151;SDS011;48139;47.474;19.034;2023-04-24T10:35:15;12.30;;;7.22;;
62151;SDS011;48139;47.474;19.034;2023-04-24T10:38:25;13.18;;;7.90;;
62151;SDS011;48139;47.474;19.034;2023-04-24T10:41:30;22.03;;;8.37;;
62151;SDS011;48139;47.474;19.034;2023-04-24T10:47:40;17.15;;;6.65;;
62151;SDS011;48139;47.474;19.034;2023-04-24T10:50:47;15.05;;;7.70;;
62151;SDS011;48139;47.474;19.034;2023-04-24T10:53:55;13.32;;;7.55;;
62151;SDS011;48139;47.474;19.034;2023-04-24T11:00:21;13.75;;;8.77;;
62151;SDS011;48139;47.474;19.034;2023-04-24T11:06:33;16.25;;;8.95;;
62151;SDS011;48139;47.474;19.034;2023-04-24T11:09:37;13.48;;;7.43;;
62151;SDS011;48139;47.474;19.034;2023-04-24T11:12:42;11.98;;;6.87;;
62151;SDS011;48139;47.474;19.034;2023-04-24T11:15:45;14.18;;;6.65;;
62151;SDS011;48139;47.474;19.034;2023-04-24T11:19:27;15.50;;;6.80;;
62151;SDS011;48139;47.474;19.034;2023-04-24T11:22:32;12.20;;;7.47;;
62151;SDS011;48139;47.474;19.034;2023-04-24T11:25:37;10.13;;;6.30;;
62151;SDS011;48139;47.474;19.034;2023-04-24T11:28:48;12.43;;;8.32;;
62151;SDS011;48139;47.474;19.034;2023-04-24T11:31:52;15.38;;;8.23;;
62151;SDS011;48139;47.474;19.034;2023-04-24T11:34:56;11.05;;;8.77;;
62151;SDS011;48139;47.474;19.034;2023-04-24T11:37:59;11.75;;;7.50;;
62151;SDS011;48139;47.474;19.034;2023-04-24T11:41:24;12.73;;;7.82;;
62151;SDS011;48139;47.474;19.034;2023-04-24T11:44:28;30.30;;;10.23;;
62151;SDS011;48139;47.474;19.034;2023-04-24T11:47:33;14.55;;;8.15;;
62151;SDS011;48139;47.474;19.034;2023-04-24T11:53:39;12.68;;;9.00;;
62151;SDS011;48139;47.474;19.034;2023-04-24T11:56:46;12.07;;;8.60;;
62151;SDS011;48139;47.474;19.034;2023-04-24T11:59:49;28.23;;;11.95;;
62151;SDS011;48139;47.474;19.034;2023-04-24T12:06:06;14.98;;;7.32;;
62151;SDS011;48139;47.474;19.034;2023-04-24T12:09:10;11.12;;;6.45;;
62151;SDS011;48139;47.474;19.034;2023-04-24T12:12:19;14.00;;;7.95;;
62151;SDS011;48139;47.474;19.034;2023-04-24T12:15:22;14.83;;;8.47;;
62151;SDS011;48139;47.474;19.034;2023-04-24T12:18:25;15.82;;;9.40;;
62151;SDS011;48139;47.474;19.034;2023-04-24T12:21:28;13.70;;;9.35;;
62151;SDS011;48139;47.474;19.034;2023-04-24T12:24:32;16.17;;;8.57;;
62151;SDS011;48139;47.474;19.034;2023-04-24T12:27:35;13.10;;;9.18;;
62151;SDS011;48139;47.474;19.034;2023-04-24T12:30:41;13.05;;;8.27;;
62151;SDS011;48139;47.474;19.034;2023-04-24T12:33:47;13.50;;;8.52;;
62151;SDS011;48139;47.474;19.034;2023-04-24T12:36:50;15.20;;;9.20;;
62151;SDS011;48139;47.474;19.034;2023-04-24T12:40:00;13.70;;;8.13;;
62151;SDS011;48139;47.474;19.034;2023-04-24T12:43:12;12.00;;;8.25;;
62151;SDS011;48139;47.474;19.034;2023-04-24T12:46:16;15.02;;;8.52;;
62151;SDS011;48139;47.474;19.034;2023-04-24T12:49:21;14.32;;;8.07;;
62151;SDS011;48139;47.474;19.034;2023-04-24T12:52:24;12.43;;;7.35;;
62151;SDS011;48139;47.474;19.034;2023-04-24T12:55:28;10.63;;;6.68;;
62151;SDS011;48139;47.474;19.034;2023-04-24T12:58:30;11.27;;;8.15;;
62151;SDS011;48139;47.474;19.034;2023-04-24T13:01:34;13.18;;;8.23;;
62151;SDS011;48139;47.474;19.034;2023-04-24T13:04:37;10.93;;;6.43;;
62151;SDS011;48139;47.474;19.034;2023-04-24T13:07:40;9.95;;;6.65;;
62151;SDS011;48139;47.474;19.034;2023-04-24T13:10:43;11.82;;;6.97;;
62151;SDS011;48139;47.474;19.034;2023-04-24T13:13:46;10.88;;;5.60;;
62151;SDS011;48139;47.474;19.034;2023-04-24T13:16:48;10.70;;;5.80;;
62151;SDS011;48139;47.474;19.034;2023-04-24T13:19:54;8.57;;;4.93;;
62151;SDS011;48139;47.474;19.034;2023-04-24T13:22:57;12.63;;;5.28;;
62151;SDS011;48139;47.474;19.034;2023-04-24T13:25:59;11.70;;;5.50;;
62151;SDS011;48139;47.474;19.034;2023-04-24T13:29:03;7.53;;;3.97;;
62151;SDS011;48139;47.474;19.034;2023-04-24T13:32:07;9.98;;;5.10;;
62151;SDS011;48139;47.474;19.034;2023-04-24T13:35:10;7.30;;;3.92;;
62151;SDS011;48139;47.474;19.034;2023-04-24T13:38:13;10.70;;;3.90;;
62151;SDS011;48139;47.474;19.034;2023-04-24T13:41:15;11.43;;;3.97;;
62151;SDS011;48139;47.474;19.034;2023-04-24T13:44:19;11.40;;;3.92;;
62151;SDS011;48139;47.474;19.034;2023-04-24T13:47:23;6.68;;;3.72;;
62151;SDS011;48139;47.474;19.034;2023-04-24T13:50:28;7.25;;;4.40;;
62151;SDS011;48139;47.474;19.034;2023-04-24T13:53:31;7.37;;;3.93;;
62151;SDS011;48139;47.474;19.034;2023-04-24T13:56:35;8.65;;;4.85;;
62151;SDS011;48139;47.474;19.034;2023-04-24T13:59:37;9.10;;;4.32;;
62151;SDS011;48139;47.474;19.034;2023-04-24T14:02:40;9.75;;;5.20;;
62151;SDS011;48139;47.474;19.034;2023-04-24T14:05:43;13.55;;;6.32;;
62151;SDS011;48139;47.474;19.034;2023-04-24T14:08:46;14.48;;;7.03;;
62151;SDS011;48139;47.474;19.034;2023-04-24T14:11:49;11.85;;;6.68;;
62151;SDS011;48139;47.474;19.034;2023-04-24T14:14:53;12.07;;;6.95;;
62151;SDS011;48139;47.474;19.034;2023-04-24T14:17:56;15.70;;;7.57;;
62151;SDS011;48139;47.474;19.034;2023-04-24T14:20:59;12.40;;;6.50;;
62151;SDS011;48139;47.474;19.034;2023-04-24T14:24:03;12.82;;;6.30;;
62151;SDS011;48139;47.474;19.034;2023-04-24T14:27:06;12.18;;;6.37;;
62151;SDS011;48139;47.474;19.034;2023-04-24T14:30:09;12.93;;;6.50;;
62151;SDS011;48139;47.474;19.034;2023-04-24T14:33:15;12.65;;;6.20;;
62151;SDS011;48139;47.474;19.034;2023-04-24T14:36:18;16.33;;;10.13;;
62151;SDS011;48139;47.474;19.034;2023-04-24T14:39:20;9.07;;;6.33;;
62151;SDS011;48139;47.474;19.034;2023-04-24T14:42:23;11.60;;;7.25;;
62151;SDS011;48139;47.474;19.034;2023-04-24T14:45:26;10.70;;;7.57;;
62151;SDS011;48139;47.474;19.034;2023-04-24T14:48:30;12.85;;;7.45;;
62151;SDS011;48139;47.474;19.034;2023-04-24T14:51:33;12.48;;;8.13;;
62151;SDS011;48139;47.474;19.034;2023-04-24T14:54:36;10.43;;;7.65;;
62151;SDS011;48139;47.474;19.034;2023-04-24T14:57:38;14.73;;;7.47;;
62151;SDS011;48139;47.474;19.034;2023-04-24T15:00:41;13.32;;;7.40;;
62151;SDS011;48139;47.474;19.034;2023-04-24T15:03:44;13.03;;;8.67;;
62151;SDS011;48139;47.474;19.034;2023-04-24T15:06:48;17.23;;;8.77;;
62151;SDS011;48139;47.474;19.034;2023-04-24T15:09:51;10.93;;;7.78;;
62151;SDS011;48139;47.474;19.034;2023-04-24T15:12:54;12.57;;;7.83;;
62151;SDS011;48139;47.474;19.034;2023-04-24T15:15:56;10.93;;;7.23;;
62151;SDS011;48139;47.474;19.034;2023-04-24T15:18:59;10.45;;;6.87;;
62151;SDS011;48139;47.474;19.034;2023-04-24T15:22:02;10.25;;;7.00;;
62151;SDS011;48139;47.474;19.034;2023-04-24T15:25:06;11.00;;;6.90;;
62151;SDS011;48139;47.474;19.034;2023-04-24T15:28:09;10.40;;;6.65;;
62151;SDS011;48139;47.474;19.034;2023-04-24T15:31:12;11.25;;;6.80;;
62151;SDS011;48139;47.474;19.034;2023-04-24T15:34:15;10.25;;;6.40;;
62151;SDS011;48139;47.474;19.034;2023-04-24T15:37:18;10.55;;;7.18;;
62151;SDS011;48139;47.474;19.034;2023-04-24T15:40:20;9.70;;;6.85;;
62151;SDS011;48139;47.474;19.034;2023-04-24T15:43:23;10.77;;;6.45;;
62151;SDS011;48139;47.474;19.034;2023-04-24T15:46:26;12.73;;;6.65;;
62151;SDS011;48139;47.474;19.034;2023-04-24T15:49:28;11.00;;;7.03;;
62151;SDS011;48139;47.474;19.034;2023-04-24T15:52:33;9.75;;;6.62;;
62151;SDS011;48139;47.474;19.034;2023-04-24T15:55:35;10.75;;;7.82;;
62151;SDS011;48139;47.474;19.034;2023-04-24T15:58:38;10.77;;;5.72;;
62151;SDS011;48139;47.474;19.034;2023-04-24T16:01:41;8.75;;;5.70;;
62151;SDS011;48139;47.474;19.034;2023-04-24T16:04:44;10.18;;;5.87;;
